sensor_id;sensor_type;location;lat;lon;timestamp;P1;durP1;ratioP1;P2;durP2;ratioP2
40501;SDS011;29631;49.168;9.848;2022-08-03T00:01:55;1.77;;;1.70;;
40501;SDS011;29631;49.168;9.848;2022-08-03T00:04:20;3.92;;;1.50;;
40501;SDS011;29631;49.168;9.848;2022-08-03T00:06:46;1.67;;;1.60;;
40501;SDS011;29631;49.168;9.848;2022-08-03T00:09:12;6.05;;;1.67;;
40501;SDS011;29631;49.168;9.848;2022-08-03T00:11:37;1.88;;;1.75;;
40501;SDS011;29631;49.168;9.848;2022-08-03T00:14:04;3.60;;;1.80;;
40501;SDS011;29631;49.168;9.848;2022-08-03T00:16:31;2.08;;;1.77;;
40501;SDS011;29631;49.168;9.848;2022-08-03T00:18:57;1.88;;;1.77;;
40501;SDS011;29631;49.168;9.848;2022-08-03T00:21:23;1.90;;;1.80;;
40501;SDS011;29631;49.168;9.848;2022-08-03T00:23:49;1.90;;;1.80;;
40501;SDS011;29631;49.168;9.848;2022-08-03T00:26:14;1.95;;;1.85;;
40501;SDS011;29631;49.168;9.848;2022-08-03T00:28:40;2.78;;;1.80;;
40501;SDS011;29631;49.168;9.848;2022-08-03T00:31:06;2.33;;;1.92;;
40501;SDS011;29631;49.168;9.848;2022-08-03T00:33:32;2.05;;;1.88;;
40501;SDS011;29631;49.168;9.848;2022-08-03T00:35:58;1.77;;;1.77;;
40501;SDS011;29631;49.168;9.848;2022-08-03T00:38:23;2.22;;;2.00;;
40501;SDS011;29631;49.168;9.848;2022-08-03T00:40:49;3.10;;;1.70;;
40501;SDS011;29631;49.168;9.848;2022-08-03T00:43:15;1.92;;;1.80;;
40501;SDS011;29631;49.168;9.848;2022-08-03T00:45:41;2.13;;;2.00;;
40501;SDS011;29631;49.168;9.848;2022-08-03T00:48:08;2.00;;;1.90;;
40501;SDS011;29631;49.168;9.848;2022-08-03T00:50:38;2.08;;;1.98;;
40501;SDS011;29631;49.168;9.848;2022-08-03T00:53:08;2.22;;;2.08;;
40501;SDS011;29631;49.168;9.848;2022-08-03T00:55:39;2.13;;;2.03;;
40501;SDS011;29631;49.168;9.848;2022-08-03T00:58:06;2.10;;;1.90;;
40501;SDS011;29631;49.168;9.848;2022-08-03T01:00:35;2.13;;;2.00;;
40501;SDS011;29631;49.168;9.848;2022-08-03T01:03:06;2.97;;;1.90;;
40501;SDS011;29631;49.168;9.848;2022-08-03T01:05:39;2.38;;;1.92;;
40501;SDS011;29631;49.168;9.848;2022-08-03T01:08:25;2.00;;;1.90;;
40501;SDS011;29631;49.168;9.848;2022-08-03T01:11:23;2.25;;;1.90;;
40501;SDS011;29631;49.168;9.848;2022-08-03T01:14:05;1.83;;;1.73;;
40501;SDS011;29631;49.168;9.848;2022-08-03T01:25:19;2.10;;;2.00;;
40501;SDS011;29631;49.168;9.848;2022-08-03T01:30:32;2.10;;;2.00;;
40501;SDS011;29631;49.168;9.848;2022-08-03T01:33:10;2.50;;;2.30;;
40501;SDS011;29631;49.168;9.848;2022-08-03T01:35:45;2.25;;;1.92;;
40501;SDS011;29631;49.168;9.848;2022-08-03T01:38:26;3.20;;;2.17;;
40501;SDS011;29631;49.168;9.848;2022-08-03T01:41:01;3.10;;;1.98;;
40501;SDS011;29631;49.168;9.848;2022-08-03T01:43:32;2.08;;;1.85;;
40501;SDS011;29631;49.168;9.848;2022-08-03T01:45:59;2.03;;;1.92;;
40501;SDS011;29631;49.168;9.848;2022-08-03T01:48:27;1.98;;;1.88;;
40501;SDS011;29631;49.168;9.848;2022-08-03T01:50:54;3.22;;;2.38;;
40501;SDS011;29631;49.168;9.848;2022-08-03T01:53:21;2.00;;;1.90;;
40501;SDS011;29631;49.168;9.848;2022-08-03T01:55:48;2.92;;;1.92;;
40501;SDS011;29631;49.168;9.848;2022-08-03T01:58:19;2.00;;;1.90;;
40501;SDS011;29631;49.168;9.848;2022-08-03T02:00:48;7.28;;;2.20;;
40501;SDS011;29631;49.168;9.848;2022-08-03T02:03:15;3.00;;;2.22;;
40501;SDS011;29631;49.168;9.848;2022-08-03T02:05:44;2.28;;;2.00;;
40501;SDS011;29631;49.168;9.848;2022-08-03T02:08:12;2.63;;;2.05;;
40501;SDS011;29631;49.168;9.848;2022-08-03T02:10:40;2.55;;;1.95;;
40501;SDS011;29631;49.168;9.848;2022-08-03T02:13:10;2.00;;;1.90;;
40501;SDS011;29631;49.168;9.848;2022-08-03T02:15:39;2.05;;;1.95;;
40501;SDS011;29631;49.168;9.848;2022-08-03T02:18:06;2.38;;;2.13;;
40501;SDS011;29631;49.168;9.848;2022-08-03T02:20:34;2.40;;;2.30;;
40501;SDS011;29631;49.168;9.848;2022-08-03T02:23:02;1.98;;;1.88;;
40501;SDS011;29631;49.168;9.848;2022-08-03T02:25:30;2.55;;;2.40;;
40501;SDS011;29631;49.168;9.848;2022-08-03T02:28:00;2.30;;;2.20;;
40501;SDS011;29631;49.168;9.848;2022-08-03T02:30:35;2.25;;;2.05;;
40501;SDS011;29631;49.168;9.848;2022-08-03T02:33:06;3.10;;;2.22;;
40501;SDS011;29631;49.168;9.848;2022-08-03T02:35:37;2.58;;;2.38;;
40501;SDS011;29631;49.168;9.848;2022-08-03T02:38:05;2.58;;;2.13;;
40501;SDS011;29631;49.168;9.848;2022-08-03T02:40:34;2.47;;;2.00;;
40501;SDS011;29631;49.168;9.848;2022-08-03T02:43:03;2.50;;;2.33;;
40501;SDS011;29631;49.168;9.848;2022-08-03T02:45:34;3.67;;;2.40;;
40501;SDS011;29631;49.168;9.848;2022-08-03T02:48:06;2.65;;;2.47;;
40501;SDS011;29631;49.168;9.848;2022-08-03T02:50:33;4.03;;;2.30;;
40501;SDS011;29631;49.168;9.848;2022-08-03T02:52:59;2.40;;;2.30;;
40501;SDS011;29631;49.168;9.848;2022-08-03T02:55:26;2.97;;;2.42;;
40501;SDS011;29631;49.168;9.848;2022-08-03T02:57:53;2.50;;;2.30;;
40501;SDS011;29631;49.168;9.848;2022-08-03T03:00:21;2.88;;;2.67;;
40501;SDS011;29631;49.168;9.848;2022-08-03T03:02:48;2.78;;;2.58;;
40501;SDS011;29631;49.168;9.848;2022-08-03T03:05:15;2.75;;;2.47;;
40501;SDS011;29631;49.168;9.848;2022-08-03T03:07:41;2.83;;;2.58;;
40501;SDS011;29631;49.168;9.848;2022-08-03T03:10:08;2.97;;;2.78;;
40501;SDS011;29631;49.168;9.848;2022-08-03T03:12:36;2.72;;;2.45;;
40501;SDS011;29631;49.168;9.848;2022-08-03T03:15:06;3.38;;;2.85;;
40501;SDS011;29631;49.168;9.848;2022-08-03T03:17:32;2.47;;;2.38;;
40501;SDS011;29631;49.168;9.848;2022-08-03T03:20:00;2.85;;;2.67;;
40501;SDS011;29631;49.168;9.848;2022-08-03T03:22:26;2.85;;;2.58;;
40501;SDS011;29631;49.168;9.848;2022-08-03T03:24:54;2.30;;;2.17;;
40501;SDS011;29631;49.168;9.848;2022-08-03T03:27:20;3.58;;;2.80;;
40501;SDS011;29631;49.168;9.848;2022-08-03T03:29:47;2.67;;;2.47;;
40501;SDS011;29631;49.168;9.848;2022-08-03T03:32:13;3.75;;;2.67;;
40501;SDS011;29631;49.168;9.848;2022-08-03T03:34:39;3.65;;;2.60;;
40501;SDS011;29631;49.168;9.848;2022-08-03T03:37:06;3.10;;;2.90;;
40501;SDS011;29631;49.168;9.848;2022-08-03T03:39:32;2.90;;;2.70;;
40501;SDS011;29631;49.168;9.848;2022-08-03T03:42:00;2.75;;;2.55;;
40501;SDS011;29631;49.168;9.848;2022-08-03T03:44:27;3.00;;;2.80;;
40501;SDS011;29631;49.168;9.848;2022-08-03T03:46:55;3.22;;;2.97;;
40501;SDS011;29631;49.168;9.848;2022-08-03T03:49:23;3.17;;;2.90;;
40501;SDS011;29631;49.168;9.848;2022-08-03T03:51:53;3.10;;;2.72;;
40501;SDS011;29631;49.168;9.848;2022-08-03T03:54:19;3.78;;;2.90;;
40501;SDS011;29631;49.168;9.848;2022-08-03T03:56:46;3.10;;;2.80;;
40501;SDS011;29631;49.168;9.848;2022-08-03T03:59:12;3.03;;;2.90;;
40501;SDS011;29631;49.168;9.848;2022-08-03T04:01:38;2.78;;;2.67;;
40501;SDS011;29631;49.168;9.848;2022-08-03T04:04:04;3.05;;;2.85;;
40501;SDS011;29631;49.168;9.848;2022-08-03T04:06:48;3.65;;;2.45;;
40501;SDS011;29631;49.168;9.848;2022-08-03T04:09:37;4.63;;;2.67;;
40501;SDS011;29631;49.168;9.848;2022-08-03T04:12:23;2.50;;;2.30;;
40501;SDS011;29631;49.168;9.848;2022-08-03T04:14:53;3.42;;;3.13;;
40501;SDS011;29631;49.168;9.848;2022-08-03T04:17:21;3.30;;;3.03;;
40501;SDS011;29631;49.168;9.848;2022-08-03T04:19:51;3.67;;;2.78;;
40501;SDS011;29631;49.168;9.848;2022-08-03T04:22:24;2.90;;;2.70;;
40501;SDS011;29631;49.168;9.848;2022-08-03T04:25:03;3.20;;;3.05;;
40501;SDS011;29631;49.168;9.848;2022-08-03T04:27:36;2.85;;;2.60;;
40501;SDS011;29631;49.168;9.848;2022-08-03T04:30:05;2.92;;;2.80;;
40501;SDS011;29631;49.168;9.848;2022-08-03T04:32:33;2.95;;;2.70;;
40501;SDS011;29631;49.168;9.848;2022-08-03T04:35:01;3.28;;;2.75;;
40501;SDS011;29631;49.168;9.848;2022-08-03T04:37:43;3.25;;;3.08;;
40501;SDS011;29631;49.168;9.848;2022-08-03T04:40:13;3.45;;;2.60;;
40501;SDS011;29631;49.168;9.848;2022-08-03T04:42:44;2.60;;;2.50;;
40501;SDS011;29631;49.168;9.848;2022-08-03T04:45:12;2.83;;;2.63;;
40501;SDS011;29631;49.168;9.848;2022-08-03T04:47:42;2.47;;;2.30;;
40501;SDS011;29631;49.168;9.848;2022-08-03T04:50:08;3.15;;;2.90;;
40501;SDS011;29631;49.168;9.848;2022-08-03T04:52:35;4.45;;;2.85;;
40501;SDS011;29631;49.168;9.848;2022-08-03T04:55:01;4.47;;;2.65;;
40501;SDS011;29631;49.168;9.848;2022-08-03T04:57:27;4.53;;;3.10;;
40501;SDS011;29631;49.168;9.848;2022-08-03T04:59:53;3.88;;;2.90;;
40501;SDS011;29631;49.168;9.848;2022-08-03T05:02:20;3.50;;;3.30;;
40501;SDS011;29631;49.168;9.848;2022-08-03T05:04:47;3.17;;;2.97;;
40501;SDS011;29631;49.168;9.848;2022-08-03T05:07:14;3.20;;;3.00;;
40501;SDS011;29631;49.168;9.848;2022-08-03T05:09:42;3.50;;;3.13;;
40501;SDS011;29631;49.168;9.848;2022-08-03T05:12:08;3.45;;;3.10;;
40501;SDS011;29631;49.168;9.848;2022-08-03T05:14:34;3.30;;;2.95;;
40501;SDS011;29631;49.168;9.848;2022-08-03T05:17:02;3.58;;;3.10;;
40501;SDS011;29631;49.168;9.848;2022-08-03T05:19:32;3.10;;;2.85;;
40501;SDS011;29631;49.168;9.848;2022-08-03T05:21:59;6.05;;;3.20;;
40501;SDS011;29631;49.168;9.848;2022-08-03T05:24:24;3.47;;;3.17;;
40501;SDS011;29631;49.168;9.848;2022-08-03T05:26:51;4.72;;;3.17;;
40501;SDS011;29631;49.168;9.848;2022-08-03T05:29:17;3.40;;;3.10;;
40501;SDS011;29631;49.168;9.848;2022-08-03T05:31:43;4.35;;;3.08;;
40501;SDS011;29631;49.168;9.848;2022-08-03T05:34:08;3.50;;;3.20;;
40501;SDS011;29631;49.168;9.848;2022-08-03T05:36:34;4.85;;;3.15;;
40501;SDS011;29631;49.168;9.848;2022-08-03T05:39:00;6.75;;;3.20;;
40501;SDS011;29631;49.168;9.848;2022-08-03T05:41:25;3.33;;;3.03;;
40501;SDS011;29631;49.168;9.848;2022-08-03T05:43:51;2.97;;;2.80;;
40501;SDS011;29631;49.168;9.848;2022-08-03T05:46:18;3.33;;;2.63;;
40501;SDS011;29631;49.168;9.848;2022-08-03T05:48:46;2.53;;;2.40;;
40501;SDS011;29631;49.168;9.848;2022-08-03T05:51:11;2.97;;;2.53;;
40501;SDS011;29631;49.168;9.848;2022-08-03T05:53:41;2.55;;;2.40;;
40501;SDS011;29631;49.168;9.848;2022-08-03T05:56:08;4.18;;;3.10;;
40501;SDS011;29631;49.168;9.848;2022-08-03T05:58:35;7.40;;;2.53;;
40501;SDS011;29631;49.168;9.848;2022-08-03T06:01:01;2.78;;;2.60;;
40501;SDS011;29631;49.168;9.848;2022-08-03T06:03:26;2.47;;;2.28;;
40501;SDS011;29631;49.168;9.848;2022-08-03T06:05:53;2.50;;;2.40;;
40501;SDS011;29631;49.168;9.848;2022-08-03T06:08:22;2.33;;;2.20;;
40501;SDS011;29631;49.168;9.848;2022-08-03T06:10:48;2.17;;;1.98;;
40501;SDS011;29631;49.168;9.848;2022-08-03T06:13:14;2.50;;;2.30;;
40501;SDS011;29631;49.168;9.848;2022-08-03T06:15:40;2.65;;;2.45;;
40501;SDS011;29631;49.168;9.848;2022-08-03T06:18:06;2.47;;;2.38;;
40501;SDS011;29631;49.168;9.848;2022-08-03T06:20:32;2.63;;;2.33;;
40501;SDS011;29631;49.168;9.848;2022-08-03T06:22:58;2.65;;;2.55;;
40501;SDS011;29631;49.168;9.848;2022-08-03T06:25:27;2.28;;;2.17;;
40501;SDS011;29631;49.168;9.848;2022-08-03T06:27:52;2.55;;;2.45;;
40501;SDS011;29631;49.168;9.848;2022-08-03T06:30:18;3.72;;;2.25;;
40501;SDS011;29631;49.168;9.848;2022-08-03T06:32:44;2.22;;;2.08;;
40501;SDS011;29631;49.168;9.848;2022-08-03T06:35:10;2.53;;;2.40;;
40501;SDS011;29631;49.168;9.848;2022-08-03T06:37:45;5.18;;;2.30;;
40501;SDS011;29631;49.168;9.848;2022-08-03T06:40:16;2.00;;;1.90;;
40501;SDS011;29631;49.168;9.848;2022-08-03T06:42:53;2.55;;;2.40;;
40501;SDS011;29631;49.168;9.848;2022-08-03T06:45:19;2.20;;;2.10;;
40501;SDS011;29631;49.168;9.848;2022-08-03T06:47:45;1.70;;;1.70;;
40501;SDS011;29631;49.168;9.848;2022-08-03T06:50:11;2.28;;;2.17;;
40501;SDS011;29631;49.168;9.848;2022-08-03T06:52:37;2.05;;;1.85;;
40501;SDS011;29631;49.168;9.848;2022-08-03T06:55:03;2.38;;;2.28;;
40501;SDS011;29631;49.168;9.848;2022-08-03T06:57:30;2.20;;;2.10;;
40501;SDS011;29631;49.168;9.848;2022-08-03T06:59:55;1.83;;;1.83;;
40501;SDS011;29631;49.168;9.848;2022-08-03T07:02:25;2.60;;;2.13;;
40501;SDS011;29631;49.168;9.848;2022-08-03T07:04:53;2.25;;;2.15;;
40501;SDS011;29631;49.168;9.848;2022-08-03T07:07:18;2.15;;;2.08;;
40501;SDS011;29631;49.168;9.848;2022-08-03T07:09:44;2.28;;;2.10;;
40501;SDS011;29631;49.168;9.848;2022-08-03T07:12:12;2.10;;;2.00;;
40501;SDS011;29631;49.168;9.848;2022-08-03T07:14:37;2.15;;;2.05;;
40501;SDS011;29631;49.168;9.848;2022-08-03T07:17:03;1.85;;;1.80;;
40501;SDS011;29631;49.168;9.848;2022-08-03T07:19:29;2.08;;;1.90;;
40501;SDS011;29631;49.168;9.848;2022-08-03T07:21:54;2.10;;;2.00;;
40501;SDS011;29631;49.168;9.848;2022-08-03T07:24:20;2.33;;;1.90;;
40501;SDS011;29631;49.168;9.848;2022-08-03T07:26:46;1.80;;;1.70;;
40501;SDS011;29631;49.168;9.848;2022-08-03T07:29:12;2.88;;;1.80;;
40501;SDS011;29631;49.168;9.848;2022-08-03T07:31:38;1.73;;;1.63;;
40501;SDS011;29631;49.168;9.848;2022-08-03T07:34:04;1.90;;;1.80;;
40501;SDS011;29631;49.168;9.848;2022-08-03T07:36:29;1.55;;;1.55;;
40501;SDS011;29631;49.168;9.848;2022-08-03T07:38:56;3.17;;;1.80;;
40501;SDS011;29631;49.168;9.848;2022-08-03T07:41:22;2.00;;;1.90;;
40501;SDS011;29631;49.168;9.848;2022-08-03T07:43:48;1.95;;;1.85;;
40501;SDS011;29631;49.168;9.848;2022-08-03T07:46:13;1.90;;;1.80;;
40501;SDS011;29631;49.168;9.848;2022-08-03T07:48:39;1.92;;;1.83;;
40501;SDS011;29631;49.168;9.848;2022-08-03T07:51:05;1.80;;;1.70;;
40501;SDS011;29631;49.168;9.848;2022-08-03T07:53:31;1.92;;;1.83;;
40501;SDS011;29631;49.168;9.848;2022-08-03T07:55:57;2.10;;;1.83;;
40501;SDS011;29631;49.168;9.848;2022-08-03T07:58:23;1.90;;;1.67;;
40501;SDS011;29631;49.168;9.848;2022-08-03T08:00:49;1.88;;;1.88;;
40501;SDS011;29631;49.168;9.848;2022-08-03T08:03:16;2.10;;;1.90;;
40501;SDS011;29631;49.168;9.848;2022-08-03T08:05:42;1.90;;;1.67;;
40501;SDS011;29631;49.168;9.848;2022-08-03T08:08:08;1.52;;;1.52;;
40501;SDS011;29631;49.168;9.848;2022-08-03T08:10:34;2.33;;;1.67;;
40501;SDS011;29631;49.168;9.848;2022-08-03T08:13:00;1.58;;;1.58;;
40501;SDS011;29631;49.168;9.848;2022-08-03T08:15:27;1.80;;;1.70;;
40501;SDS011;29631;49.168;9.848;2022-08-03T08:17:53;1.70;;;1.65;;
40501;SDS011;29631;49.168;9.848;2022-08-03T08:20:24;1.50;;;1.40;;
40501;SDS011;29631;49.168;9.848;2022-08-03T08:22:53;1.30;;;1.30;;
40501;SDS011;29631;49.168;9.848;2022-08-03T08:25:27;1.45;;;1.35;;
40501;SDS011;29631;49.168;9.848;2022-08-03T08:27:55;1.20;;;1.20;;
40501;SDS011;29631;49.168;9.848;2022-08-03T08:30:21;1.40;;;1.30;;
40501;SDS011;29631;49.168;9.848;2022-08-03T08:32:48;2.72;;;1.20;;
40501;SDS011;29631;49.168;9.848;2022-08-03T08:35:14;1.65;;;1.50;;
40501;SDS011;29631;49.168;9.848;2022-08-03T08:37:42;2.20;;;1.52;;
40501;SDS011;29631;49.168;9.848;2022-08-03T08:40:08;1.30;;;1.30;;
40501;SDS011;29631;49.168;9.848;2022-08-03T08:42:39;1.30;;;1.30;;
40501;SDS011;29631;49.168;9.848;2022-08-03T08:45:08;1.38;;;1.30;;
40501;SDS011;29631;49.168;9.848;2022-08-03T08:47:37;1.35;;;1.33;;
40501;SDS011;29631;49.168;9.848;2022-08-03T08:50:06;2.55;;;1.35;;
40501;SDS011;29631;49.168;9.848;2022-08-03T08:52:33;1.40;;;1.30;;
40501;SDS011;29631;49.168;9.848;2022-08-03T08:55:04;1.52;;;1.50;;
40501;SDS011;29631;49.168;9.848;2022-08-03T08:57:33;2.38;;;1.60;;
40501;SDS011;29631;49.168;9.848;2022-08-03T09:00:07;1.50;;;1.40;;
40501;SDS011;29631;49.168;9.848;2022-08-03T09:02:37;1.50;;;1.50;;
40501;SDS011;29631;49.168;9.848;2022-08-03T09:05:06;1.70;;;1.60;;
40501;SDS011;29631;49.168;9.848;2022-08-03T09:07:40;1.35;;;1.35;;
40501;SDS011;29631;49.168;9.848;2022-08-03T09:10:07;1.40;;;1.40;;
40501;SDS011;29631;49.168;9.848;2022-08-03T09:12:36;1.42;;;1.42;;
40501;SDS011;29631;49.168;9.848;2022-08-03T09:15:19;1.35;;;1.35;;
40501;SDS011;29631;49.168;9.848;2022-08-03T09:17:51;2.15;;;1.40;;
40501;SDS011;29631;49.168;9.848;2022-08-03T09:20:20;1.45;;;1.45;;
40501;SDS011;29631;49.168;9.848;2022-08-03T09:23:07;4.40;;;1.50;;
40501;SDS011;29631;49.168;9.848;2022-08-03T09:25:35;1.67;;;1.58;;
40501;SDS011;29631;49.168;9.848;2022-08-03T09:30:41;2.42;;;1.70;;
40501;SDS011;29631;49.168;9.848;2022-08-03T09:33:22;1.83;;;1.30;;
40501;SDS011;29631;49.168;9.848;2022-08-03T09:35:48;1.50;;;1.50;;
40501;SDS011;29631;49.168;9.848;2022-08-03T09:38:14;2.20;;;1.50;;
40501;SDS011;29631;49.168;9.848;2022-08-03T09:40:43;1.63;;;1.50;;
40501;SDS011;29631;49.168;9.848;2022-08-03T09:43:10;1.60;;;1.50;;
40501;SDS011;29631;49.168;9.848;2022-08-03T09:45:37;2.45;;;1.30;;
40501;SDS011;29631;49.168;9.848;2022-08-03T09:50:51;2.38;;;1.40;;
40501;SDS011;29631;49.168;9.848;2022-08-03T09:53:24;1.25;;;1.25;;
40501;SDS011;29631;49.168;9.848;2022-08-03T09:55:57;1.35;;;1.35;;
40501;SDS011;29631;49.168;9.848;2022-08-03T09:58:27;1.33;;;1.33;;
40501;SDS011;29631;49.168;9.848;2022-08-03T10:00:59;1.50;;;1.40;;
40501;SDS011;29631;49.168;9.848;2022-08-03T10:03:29;3.75;;;1.40;;
40501;SDS011;29631;49.168;9.848;2022-08-03T10:06:17;1.35;;;1.35;;
40501;SDS011;29631;49.168;9.848;2022-08-03T10:08:44;1.30;;;1.30;;
40501;SDS011;29631;49.168;9.848;2022-08-03T10:11:10;1.63;;;1.40;;
40501;SDS011;29631;49.168;9.848;2022-08-03T10:13:37;3.22;;;1.40;;
40501;SDS011;29631;49.168;9.848;2022-08-03T10:16:03;2.33;;;1.20;;
40501;SDS011;29631;49.168;9.848;2022-08-03T10:18:30;1.95;;;1.40;;
40501;SDS011;29631;49.168;9.848;2022-08-03T10:20:58;1.20;;;1.20;;
40501;SDS011;29631;49.168;9.848;2022-08-03T10:23:33;1.60;;;1.20;;
40501;SDS011;29631;49.168;9.848;2022-08-03T10:26:01;1.23;;;1.23;;
40501;SDS011;29631;49.168;9.848;2022-08-03T10:28:34;2.67;;;1.33;;
40501;SDS011;29631;49.168;9.848;2022-08-03T10:31:04;1.30;;;1.30;;
40501;SDS011;29631;49.168;9.848;2022-08-03T10:33:33;1.23;;;1.23;;
40501;SDS011;29631;49.168;9.848;2022-08-03T10:36:06;1.48;;;1.40;;
40501;SDS011;29631;49.168;9.848;2022-08-03T10:38:42;1.20;;;1.20;;
40501;SDS011;29631;49.168;9.848;2022-08-03T10:41:11;1.23;;;1.13;;
40501;SDS011;29631;49.168;9.848;2022-08-03T10:43:46;1.40;;;1.30;;
40501;SDS011;29631;49.168;9.848;2022-08-03T10:46:20;1.00;;;1.00;;
40501;SDS011;29631;49.168;9.848;2022-08-03T10:48:47;1.88;;;1.30;;
40501;SDS011;29631;49.168;9.848;2022-08-03T10:51:14;1.20;;;1.20;;
40501;SDS011;29631;49.168;9.848;2022-08-03T10:53:41;1.25;;;1.20;;
40501;SDS011;29631;49.168;9.848;2022-08-03T10:59:18;3.78;;;1.13;;
40501;SDS011;29631;49.168;9.848;2022-08-03T11:02:04;1.35;;;1.08;;
40501;SDS011;29631;49.168;9.848;2022-08-03T11:04:33;1.30;;;1.20;;
40501;SDS011;29631;49.168;9.848;2022-08-03T11:09:41;1.05;;;1.05;;
40501;SDS011;29631;49.168;9.848;2022-08-03T11:12:25;1.20;;;1.20;;
40501;SDS011;29631;49.168;9.848;2022-08-03T11:14:59;1.20;;;1.20;;
40501;SDS011;29631;49.168;9.848;2022-08-03T11:17:31;1.00;;;1.00;;
40501;SDS011;29631;49.168;9.848;2022-08-03T11:19:57;1.10;;;1.10;;
40501;SDS011;29631;49.168;9.848;2022-08-03T11:22:24;1.27;;;1.17;;
40501;SDS011;29631;49.168;9.848;2022-08-03T11:25:10;1.10;;;1.10;;
40501;SDS011;29631;49.168;9.848;2022-08-03T11:27:37;0.98;;;0.98;;
40501;SDS011;29631;49.168;9.848;2022-08-03T11:30:07;1.60;;;1.15;;
40501;SDS011;29631;49.168;9.848;2022-08-03T11:35:14;1.85;;;0.90;;
40501;SDS011;29631;49.168;9.848;2022-08-03T11:46:01;1.05;;;1.05;;
40501;SDS011;29631;49.168;9.848;2022-08-03T11:51:01;1.20;;;1.20;;
40501;SDS011;29631;49.168;9.848;2022-08-03T11:53:29;1.77;;;1.15;;
40501;SDS011;29631;49.168;9.848;2022-08-03T11:55:59;1.45;;;1.10;;
40501;SDS011;29631;49.168;9.848;2022-08-03T11:58:28;1.63;;;1.20;;
40501;SDS011;29631;49.168;9.848;2022-08-03T12:01:02;1.08;;;1.08;;
40501;SDS011;29631;49.168;9.848;2022-08-03T12:03:33;1.25;;;1.25;;
40501;SDS011;29631;49.168;9.848;2022-08-03T12:06:00;1.15;;;1.15;;
40501;SDS011;29631;49.168;9.848;2022-08-03T12:10:52;1.00;;;1.00;;
40501;SDS011;29631;49.168;9.848;2022-08-03T12:13:20;1.00;;;1.00;;
40501;SDS011;29631;49.168;9.848;2022-08-03T12:15:51;1.02;;;1.02;;
40501;SDS011;29631;49.168;9.848;2022-08-03T12:18:20;1.08;;;1.05;;
40501;SDS011;29631;49.168;9.848;2022-08-03T12:20:48;1.15;;;1.15;;
40501;SDS011;29631;49.168;9.848;2022-08-03T12:23:16;1.20;;;1.20;;
40501;SDS011;29631;49.168;9.848;2022-08-03T12:25:43;1.20;;;1.20;;
40501;SDS011;29631;49.168;9.848;2022-08-03T12:28:15;1.20;;;1.10;;
40501;SDS011;29631;49.168;9.848;2022-08-03T12:30:48;1.40;;;1.25;;
40501;SDS011;29631;49.168;9.848;2022-08-03T12:33:17;2.28;;;1.20;;
40501;SDS011;29631;49.168;9.848;2022-08-03T12:36:06;1.75;;;1.10;;
40501;SDS011;29631;49.168;9.848;2022-08-03T12:38:37;1.10;;;1.10;;
40501;SDS011;29631;49.168;9.848;2022-08-03T12:41:09;1.00;;;1.00;;
40501;SDS011;29631;49.168;9.848;2022-08-03T12:43:46;1.17;;;1.17;;
40501;SDS011;29631;49.168;9.848;2022-08-03T12:46:14;1.58;;;1.10;;
40501;SDS011;29631;49.168;9.848;2022-08-03T12:54:06;1.25;;;0.90;;
40501;SDS011;29631;49.168;9.848;2022-08-03T12:56:33;0.95;;;0.95;;
40501;SDS011;29631;49.168;9.848;2022-08-03T12:58:59;0.90;;;0.90;;
40501;SDS011;29631;49.168;9.848;2022-08-03T13:01:45;1.00;;;1.00;;
40501;SDS011;29631;49.168;9.848;2022-08-03T13:04:11;0.80;;;0.80;;
40501;SDS011;29631;49.168;9.848;2022-08-03T13:06:55;1.00;;;1.00;;
40501;SDS011;29631;49.168;9.848;2022-08-03T13:09:26;1.00;;;1.00;;
40501;SDS011;29631;49.168;9.848;2022-08-03T13:12:06;0.95;;;0.95;;
40501;SDS011;29631;49.168;9.848;2022-08-03T13:14:34;0.82;;;0.82;;
40501;SDS011;29631;49.168;9.848;2022-08-03T13:17:00;0.95;;;0.95;;
40501;SDS011;29631;49.168;9.848;2022-08-03T13:19:25;1.02;;;1.00;;
40501;SDS011;29631;49.168;9.848;2022-08-03T13:21:51;1.00;;;1.00;;
40501;SDS011;29631;49.168;9.848;2022-08-03T13:24:17;1.10;;;1.10;;
40501;SDS011;29631;49.168;9.848;2022-08-03T13:26:43;1.63;;;1.05;;
40501;SDS011;29631;49.168;9.848;2022-08-03T13:29:09;0.82;;;0.82;;
40501;SDS011;29631;49.168;9.848;2022-08-03T13:31:35;1.00;;;1.00;;
40501;SDS011;29631;49.168;9.848;2022-08-03T13:34:00;1.10;;;1.10;;
40501;SDS011;29631;49.168;9.848;2022-08-03T13:36:26;1.15;;;1.10;;
40501;SDS011;29631;49.168;9.848;2022-08-03T13:38:52;1.42;;;0.95;;
40501;SDS011;29631;49.168;9.848;2022-08-03T13:41:17;1.00;;;1.00;;
40501;SDS011;29631;49.168;9.848;2022-08-03T13:43:43;0.90;;;0.90;;
40501;SDS011;29631;49.168;9.848;2022-08-03T13:46:09;2.60;;;1.10;;
40501;SDS011;29631;49.168;9.848;2022-08-03T13:48:35;1.10;;;1.10;;
40501;SDS011;29631;49.168;9.848;2022-08-03T13:51:00;1.20;;;1.20;;
40501;SDS011;29631;49.168;9.848;2022-08-03T13:53:26;1.05;;;1.05;;
40501;SDS011;29631;49.168;9.848;2022-08-03T13:55:52;1.10;;;1.10;;
40501;SDS011;29631;49.168;9.848;2022-08-03T13:58:18;0.88;;;0.88;;
40501;SDS011;29631;49.168;9.848;2022-08-03T14:00:44;1.00;;;1.00;;
40501;SDS011;29631;49.168;9.848;2022-08-03T14:03:09;1.00;;;1.00;;
40501;SDS011;29631;49.168;9.848;2022-08-03T14:05:35;1.13;;;1.10;;
40501;SDS011;29631;49.168;9.848;2022-08-03T14:08:02;1.67;;;1.10;;
40501;SDS011;29631;49.168;9.848;2022-08-03T14:10:34;1.08;;;1.08;;
40501;SDS011;29631;49.168;9.848;2022-08-03T14:13:03;1.10;;;1.10;;
40501;SDS011;29631;49.168;9.848;2022-08-03T14:15:29;1.00;;;1.00;;
40501;SDS011;29631;49.168;9.848;2022-08-03T14:17:55;1.10;;;1.10;;
40501;SDS011;29631;49.168;9.848;2022-08-03T14:20:21;0.95;;;0.88;;
40501;SDS011;29631;49.168;9.848;2022-08-03T14:22:47;1.17;;;1.17;;
40501;SDS011;29631;49.168;9.848;2022-08-03T14:25:13;1.10;;;1.10;;
40501;SDS011;29631;49.168;9.848;2022-08-03T14:27:39;1.10;;;1.10;;
40501;SDS011;29631;49.168;9.848;2022-08-03T14:30:05;1.10;;;1.10;;
40501;SDS011;29631;49.168;9.848;2022-08-03T14:32:31;1.10;;;1.10;;
40501;SDS011;29631;49.168;9.848;2022-08-03T14:34:56;0.82;;;0.82;;
40501;SDS011;29631;49.168;9.848;2022-08-03T14:37:22;0.90;;;0.90;;
40501;SDS011;29631;49.168;9.848;2022-08-03T14:39:48;1.00;;;1.00;;
40501;SDS011;29631;49.168;9.848;2022-08-03T14:42:14;1.00;;;1.00;;
40501;SDS011;29631;49.168;9.848;2022-08-03T14:44:40;0.93;;;0.93;;
40501;SDS011;29631;49.168;9.848;2022-08-03T14:47:06;1.20;;;1.20;;
40501;SDS011;29631;49.168;9.848;2022-08-03T14:49:32;1.67;;;1.10;;
40501;SDS011;29631;49.168;9.848;2022-08-03T14:51:58;0.98;;;0.98;;
40501;SDS011;29631;49.168;9.848;2022-08-03T14:54:24;1.27;;;1.17;;
40501;SDS011;29631;49.168;9.848;2022-08-03T14:56:49;0.98;;;0.98;;
40501;SDS011;29631;49.168;9.848;2022-08-03T14:59:15;1.83;;;1.17;;
40501;SDS011;29631;49.168;9.848;2022-08-03T15:01:42;1.02;;;1.00;;
40501;SDS011;29631;49.168;9.848;2022-08-03T15:04:07;1.15;;;1.08;;
40501;SDS011;29631;49.168;9.848;2022-08-03T15:06:33;1.20;;;0.90;;
40501;SDS011;29631;49.168;9.848;2022-08-03T15:08:59;1.10;;;1.10;;
40501;SDS011;29631;49.168;9.848;2022-08-03T15:11:25;1.20;;;1.20;;
40501;SDS011;29631;49.168;9.848;2022-08-03T15:13:50;1.95;;;1.17;;
40501;SDS011;29631;49.168;9.848;2022-08-03T15:16:16;1.00;;;1.00;;
40501;SDS011;29631;49.168;9.848;2022-08-03T15:18:42;1.10;;;1.10;;
40501;SDS011;29631;49.168;9.848;2022-08-03T15:21:07;1.10;;;1.10;;
40501;SDS011;29631;49.168;9.848;2022-08-03T15:23:33;1.00;;;1.00;;
40501;SDS011;29631;49.168;9.848;2022-08-03T15:25:59;1.10;;;1.10;;
40501;SDS011;29631;49.168;9.848;2022-08-03T15:28:25;2.00;;;1.10;;
40501;SDS011;29631;49.168;9.848;2022-08-03T15:30:50;1.00;;;1.00;;
40501;SDS011;29631;49.168;9.848;2022-08-03T15:33:16;2.05;;;1.00;;
40501;SDS011;29631;49.168;9.848;2022-08-03T15:35:42;1.33;;;1.00;;
40501;SDS011;29631;49.168;9.848;2022-08-03T15:38:10;3.08;;;0.90;;
40501;SDS011;29631;49.168;9.848;2022-08-03T15:40:36;1.67;;;0.90;;